Bere Alston, United Kingdom
Current Conditions -  °F | °C
As of 12:20 AM on Monday 20 Oct 2014 (Local Time) from EGHQ Reporting Station
Rain Showers Rain Showers  
Wind Chill: 55°   Ceiling: Unl
Heat Index: 55°   Visibility: 6mi
Dew Point: 52°   Wind: 17mph
Humidity: 88%   Direction: 250°WSW
Pressure: 30.09"   Gusts: NA
Location:  50.48°N, 4.19°W
Report Text: EGHQ 192320Z 25015KT 9999 SHRA SCT010 13/11 Q1019
Loading
Personal Weather Stations






























Interactive Weather Map
Tropical Storm Tracking
New forecast layout! Learn more

10-Day Weather Forecast

Advertisements
Track Severe Weather on mobile